createdAt,value
2022-08-30T00:01:41.908Z,16.65
2022-08-30T00:04:44.409Z,16.64
2022-08-30T00:07:46.981Z,16.64
2022-08-30T00:10:50.708Z,16.64
2022-08-30T00:13:54.872Z,16.62
2022-08-30T00:16:57.443Z,16.63
2022-08-30T00:20:00.153Z,16.62
2022-08-30T00:23:03.214Z,16.62
2022-08-30T00:26:06.632Z,16.60
2022-08-30T00:29:09.154Z,16.59
2022-08-30T00:32:12.192Z,16.60
2022-08-30T00:35:15.905Z,16.59
2022-08-30T00:38:18.470Z,16.59
2022-08-30T00:41:22.076Z,16.57
2022-08-30T00:44:24.657Z,16.58
2022-08-30T00:47:27.260Z,16.58
2022-08-30T00:50:32.550Z,16.58
2022-08-30T00:53:37.427Z,16.57
2022-08-30T00:56:40.146Z,16.54
2022-08-30T00:59:43.110Z,16.51
2022-08-30T01:02:45.843Z,16.47
2022-08-30T01:05:51.557Z,16.43
2022-08-30T01:08:55.030Z,16.41
2022-08-30T01:11:57.667Z,16.40
2022-08-30T01:15:00.260Z,16.38
2022-08-30T01:18:03.732Z,16.36
2022-08-30T01:21:16.368Z,16.35
2022-08-30T01:24:19.357Z,16.34
2022-08-30T01:27:24.551Z,16.32
2022-08-30T01:30:27.464Z,16.30
2022-08-30T01:33:30.250Z,16.28
2022-08-30T01:36:33.968Z,16.27
2022-08-30T01:39:36.733Z,16.26
2022-08-30T01:42:39.302Z,16.24
2022-08-30T01:45:42.131Z,16.23
2022-08-30T01:48:50.206Z,16.20
2022-08-30T01:52:00.619Z,16.17
2022-08-30T01:55:05.103Z,16.16
2022-08-30T01:58:07.813Z,16.14
2022-08-30T02:01:13.321Z,16.12
2022-08-30T02:04:16.436Z,16.09
2022-08-30T02:07:19.056Z,16.07
2022-08-30T02:10:21.983Z,16.05
2022-08-30T02:13:24.505Z,16.01
2022-08-30T02:16:27.074Z,15.98
2022-08-30T02:19:29.975Z,15.95
2022-08-30T02:22:32.716Z,15.91
2022-08-30T02:25:35.394Z,15.88
2022-08-30T02:28:42.732Z,15.86
2022-08-30T02:31:52.376Z,15.84
2022-08-30T02:34:55.096Z,15.80
2022-08-30T02:37:57.635Z,15.78
2022-08-30T02:41:00.690Z,15.76
2022-08-30T02:44:03.633Z,15.74
2022-08-30T02:47:06.356Z,15.73
2022-08-30T02:50:10.239Z,15.68
2022-08-30T02:53:16.204Z,15.61
2022-08-30T02:56:19.418Z,15.51
2022-08-30T02:59:21.992Z,15.45
2022-08-30T03:02:25.394Z,15.40
2022-08-30T03:05:28.260Z,15.36
2022-08-30T03:08:31.052Z,15.33
2022-08-30T03:11:34.199Z,15.30
2022-08-30T03:14:37.387Z,15.26
2022-08-30T03:17:40.431Z,15.22
2022-08-30T03:20:46.117Z,15.20
2022-08-30T03:23:56.679Z,15.20
2022-08-30T03:26:59.200Z,15.20
2022-08-30T03:30:01.774Z,15.23
2022-08-30T03:33:04.591Z,15.27
2022-08-30T03:36:10.434Z,15.29
2022-08-30T03:39:13.949Z,15.32
2022-08-30T03:42:17.056Z,15.32
2022-08-30T03:45:20.216Z,15.29
2022-08-30T03:48:22.775Z,15.23
2022-08-30T03:51:25.560Z,15.18
2022-08-30T03:54:28.126Z,15.11
2022-08-30T03:57:30.818Z,15.05
2022-08-30T04:00:33.882Z,14.99
2022-08-30T04:03:36.538Z,14.93
2022-08-30T04:06:39.162Z,14.89
2022-08-30T04:09:41.951Z,14.85
2022-08-30T04:12:49.461Z,14.81
2022-08-30T04:15:52.285Z,14.78
2022-08-30T04:18:57.477Z,14.75
2022-08-30T04:22:00.497Z,14.71
2022-08-30T04:25:03.482Z,14.70
2022-08-30T04:28:06.547Z,14.67
2022-08-30T04:31:11.697Z,14.65
2022-08-30T04:34:14.732Z,14.62
2022-08-30T04:37:17.313Z,14.62
2022-08-30T04:40:20.094Z,14.63
2022-08-30T04:43:24.941Z,14.65
2022-08-30T04:46:27.607Z,14.67
2022-08-30T04:49:32.571Z,14.73
2022-08-30T04:52:35.223Z,14.83
2022-08-30T04:55:38.929Z,14.97
2022-08-30T04:58:41.552Z,15.15
2022-08-30T05:01:45.490Z,15.32
2022-08-30T05:05:07.245Z,15.46
2022-08-30T05:08:10.906Z,15.60
2022-08-30T05:11:14.807Z,15.80
2022-08-30T05:14:17.442Z,16.08
2022-08-30T05:17:20.167Z,16.21
2022-08-30T05:20:22.889Z,16.27
2022-08-30T05:23:25.386Z,16.33
2022-08-30T05:26:29.481Z,16.39
2022-08-30T05:29:32.073Z,16.59
2022-08-30T05:32:34.703Z,16.77
2022-08-30T05:35:37.756Z,16.92
2022-08-30T05:38:40.476Z,17.16
2022-08-30T05:41:44.640Z,17.24
2022-08-30T05:44:50.570Z,17.35
2022-08-30T05:47:53.223Z,17.51
2022-08-30T05:51:02.911Z,17.65
2022-08-30T05:54:05.947Z,17.62
2022-08-30T05:57:08.503Z,17.87
2022-08-30T06:00:13.622Z,17.96
2022-08-30T06:03:16.425Z,17.95
2022-08-30T06:06:19.514Z,18.02
2022-08-30T06:09:22.052Z,18.06
2022-08-30T06:12:25.163Z,17.98
2022-08-30T06:15:27.757Z,17.99
2022-08-30T06:18:31.010Z,18.10
2022-08-30T06:21:34.854Z,18.32
2022-08-30T06:24:56.410Z,18.49
2022-08-30T06:27:59.753Z,18.66
2022-08-30T06:31:05.708Z,18.93
2022-08-30T06:34:08.393Z,19.40
2022-08-30T06:37:11.085Z,19.61
2022-08-30T06:40:16.086Z,19.79
2022-08-30T06:43:18.636Z,19.86
2022-08-30T06:46:22.369Z,19.93
2022-08-30T06:49:25.391Z,19.99
2022-08-30T06:52:28.121Z,19.96
2022-08-30T06:55:33.078Z,19.83
2022-08-30T06:58:36.644Z,19.84
2022-08-30T07:01:39.431Z,19.92
2022-08-30T07:04:42.164Z,19.95
2022-08-30T07:07:44.701Z,19.83
2022-08-30T07:10:47.393Z,19.80
2022-08-30T07:13:50.029Z,19.85
2022-08-30T07:16:52.515Z,19.90
2022-08-30T07:19:55.185Z,19.88
2022-08-30T07:22:57.796Z,19.91
2022-08-30T07:26:02.629Z,19.93
2022-08-30T07:29:05.766Z,19.95
2022-08-30T07:32:08.380Z,20.04
2022-08-30T07:35:10.892Z,20.12
2022-08-30T07:38:14.042Z,20.22
2022-08-30T07:41:19.354Z,20.22
2022-08-30T07:44:23.229Z,20.19
2022-08-30T07:47:27.568Z,20.30
2022-08-30T07:50:30.382Z,20.45
2022-08-30T07:53:35.281Z,20.58
2022-08-30T07:56:40.815Z,20.65
2022-08-30T07:59:43.323Z,20.73
2022-08-30T08:02:46.156Z,20.85
2022-08-30T08:05:48.776Z,20.94
2022-08-30T08:08:51.791Z,20.98
2022-08-30T08:11:57.346Z,21.14
2022-08-30T08:15:02.138Z,21.16
2022-08-30T08:18:09.467Z,21.22
2022-08-30T08:21:12.264Z,21.24
2022-08-30T08:24:15.834Z,21.20
2022-08-30T08:27:18.325Z,21.11
2022-08-30T08:30:21.901Z,21.16
2022-08-30T08:33:24.557Z,21.26
2022-08-30T08:36:29.698Z,21.40
2022-08-30T08:39:32.173Z,21.45
2022-08-30T08:42:49.170Z,21.59
2022-08-30T08:45:56.008Z,21.85
2022-08-30T08:49:02.560Z,22.10
2022-08-30T08:52:23.660Z,22.23
2022-08-30T08:55:27.077Z,22.24
2022-08-30T08:58:31.657Z,22.18
2022-08-30T09:01:34.920Z,22.23
2022-08-30T09:04:39.103Z,22.37
2022-08-30T09:07:43.590Z,22.57
2022-08-30T09:10:51.128Z,22.66
2022-08-30T09:13:54.442Z,22.76
2022-08-30T09:17:02.876Z,22.92
2022-08-30T09:20:06.330Z,22.88
2022-08-30T09:23:21.330Z,23.11
2022-08-30T09:26:29.028Z,23.50
2022-08-30T09:29:32.034Z,23.50
2022-08-30T09:32:36.650Z,23.50
2022-08-30T09:35:42.362Z,23.48
2022-08-30T09:38:45.013Z,23.46
2022-08-30T09:41:49.815Z,23.59
2022-08-30T09:44:53.211Z,23.77
2022-08-30T09:47:55.729Z,23.87
2022-08-30T09:51:07.733Z,23.97
2022-08-30T09:54:18.325Z,23.66
2022-08-30T09:57:34.027Z,23.26
2022-08-30T10:00:40.242Z,23.12
2022-08-30T10:03:49.699Z,23.09
2022-08-30T10:06:55.605Z,23.03
2022-08-30T10:10:02.611Z,22.93
2022-08-30T10:13:15.150Z,23.10
2022-08-30T10:16:24.521Z,23.20
2022-08-30T10:19:32.085Z,23.39
2022-08-30T10:22:37.387Z,23.31
2022-08-30T10:25:44.071Z,23.35
2022-08-30T10:28:50.750Z,23.46
2022-08-30T10:31:56.859Z,23.39
2022-08-30T10:35:03.825Z,23.34
2022-08-30T10:38:10.327Z,23.03
2022-08-30T10:41:19.968Z,22.76
2022-08-30T10:44:25.100Z,22.52
2022-08-30T10:47:32.771Z,22.38
2022-08-30T10:50:41.255Z,22.21
2022-08-30T10:53:46.706Z,22.02
2022-08-30T10:56:51.253Z,21.76
2022-08-30T10:59:56.284Z,21.66
2022-08-30T11:03:13.831Z,21.66
2022-08-30T11:06:22.198Z,21.66
2022-08-30T11:09:31.442Z,21.70
2022-08-30T11:12:39.012Z,21.65
2022-08-30T11:15:56.758Z,21.81
2022-08-30T11:19:00.266Z,21.89
2022-08-30T11:22:12.441Z,21.78
2022-08-30T11:25:38.676Z,21.61
2022-08-30T11:28:56.011Z,21.53
2022-08-30T11:31:59.576Z,21.45
2022-08-30T11:35:04.271Z,21.27
2022-08-30T11:38:22.279Z,21.11
2022-08-30T11:41:30.542Z,20.97
2022-08-30T11:44:33.552Z,20.95
2022-08-30T11:47:38.244Z,20.73
2022-08-30T11:50:48.600Z,20.60
2022-08-30T11:53:57.713Z,20.60
2022-08-30T11:57:05.725Z,20.56
2022-08-30T12:00:10.272Z,20.63
2022-08-30T12:03:31.377Z,20.81
2022-08-30T12:06:45.185Z,20.86
2022-08-30T12:10:03.595Z,21.00
2022-08-30T12:13:07.506Z,21.11
2022-08-30T12:16:13.322Z,21.28
2022-08-30T12:19:19.105Z,21.43
2022-08-30T12:22:22.318Z,21.48
2022-08-30T12:25:28.062Z,21.48
2022-08-30T12:28:32.793Z,21.48
2022-08-30T12:31:40.526Z,21.61
2022-08-30T12:34:49.742Z,21.68
2022-08-30T12:37:57.659Z,21.72
2022-08-30T12:41:01.830Z,21.77
2022-08-30T12:44:07.135Z,21.95
2022-08-30T12:47:12.030Z,22.28
2022-08-30T12:50:16.743Z,22.50
2022-08-30T12:53:24.011Z,22.74
2022-08-30T12:56:50.680Z,22.94
2022-08-30T12:59:59.516Z,23.13
2022-08-30T13:03:16.664Z,23.36
2022-08-30T13:06:35.446Z,23.67
2022-08-30T13:09:40.005Z,23.97
2022-08-30T13:12:57.291Z,23.93
2022-08-30T13:16:08.431Z,24.03
2022-08-30T13:19:32.048Z,24.13
2022-08-30T13:22:36.305Z,24.15
2022-08-30T13:25:39.997Z,24.15
2022-08-30T13:28:43.564Z,24.09
2022-08-30T13:31:51.923Z,24.10
2022-08-30T13:34:54.746Z,24.15
2022-08-30T13:37:57.835Z,24.11
2022-08-30T13:41:02.918Z,24.15
2022-08-30T13:44:12.231Z,24.22
2022-08-30T13:47:32.563Z,24.30
2022-08-30T13:50:38.276Z,24.48
2022-08-30T13:53:56.434Z,24.53
2022-08-30T13:57:00.233Z,24.27
2022-08-30T14:00:07.870Z,24.35
2022-08-30T14:03:15.313Z,24.63
2022-08-30T14:06:34.029Z,24.80
2022-08-30T14:09:37.227Z,24.92
2022-08-30T14:13:02.531Z,24.94
2022-08-30T14:19:34.172Z,24.98
2022-08-30T14:22:37.279Z,24.88
2022-08-30T14:25:40.778Z,24.83
2022-08-30T14:28:44.470Z,24.75
2022-08-30T14:31:48.673Z,24.66
2022-08-30T14:34:51.700Z,24.52
2022-08-30T14:37:54.708Z,24.48
2022-08-30T14:40:57.620Z,24.33
2022-08-30T14:44:04.128Z,24.20
2022-08-30T14:47:07.124Z,23.98
2022-08-30T14:50:10.430Z,23.77
2022-08-30T14:53:13.219Z,23.63
2022-08-30T14:56:19.593Z,23.60
2022-08-30T14:59:23.254Z,23.51
2022-08-30T15:02:27.145Z,23.40
2022-08-30T15:05:31.301Z,23.42
2022-08-30T15:08:34.904Z,23.43
2022-08-30T15:11:37.948Z,23.55
2022-08-30T15:14:41.793Z,23.60
2022-08-30T15:17:44.410Z,23.49
2022-08-30T15:20:48.908Z,23.30
2022-08-30T15:23:52.748Z,23.16
2022-08-30T15:26:55.468Z,22.96
2022-08-30T15:29:58.302Z,22.76
2022-08-30T15:33:01.161Z,22.63
2022-08-30T15:36:04.732Z,22.59
2022-08-30T15:39:07.681Z,22.49
2022-08-30T15:42:16.393Z,22.51
2022-08-30T15:45:22.301Z,22.42
2022-08-30T15:48:25.654Z,22.32
2022-08-30T15:51:28.861Z,22.19
2022-08-30T15:54:33.626Z,22.12
2022-08-30T15:57:36.367Z,22.02
2022-08-30T16:00:44.662Z,21.90
2022-08-30T16:03:47.926Z,21.77
2022-08-30T16:06:51.323Z,21.64
2022-08-30T16:09:55.320Z,21.56
2022-08-30T16:13:01.110Z,21.43
2022-08-30T16:16:07.178Z,21.33
2022-08-30T16:19:10.324Z,21.33
2022-08-30T16:22:13.072Z,21.32
2022-08-30T16:25:18.510Z,21.30
2022-08-30T16:28:21.168Z,21.29
2022-08-30T16:31:24.758Z,21.24
2022-08-30T16:34:28.708Z,21.18
2022-08-30T16:37:31.419Z,21.12
2022-08-30T16:40:35.015Z,21.04
2022-08-30T16:43:38.900Z,20.94
2022-08-30T16:46:42.535Z,20.88
2022-08-30T16:49:46.557Z,20.77
2022-08-30T16:52:49.239Z,20.67
2022-08-30T16:55:52.233Z,20.57
2022-08-30T16:59:01.187Z,20.43
2022-08-30T17:02:05.227Z,20.27
2022-08-30T17:05:12.096Z,20.14
2022-08-30T17:08:14.958Z,19.99
2022-08-30T17:11:17.708Z,19.83
2022-08-30T17:14:27.858Z,19.71
2022-08-30T17:17:32.166Z,19.59
2022-08-30T17:20:35.165Z,19.47
2022-08-30T17:23:38.567Z,19.34
2022-08-30T17:26:41.360Z,19.21
2022-08-30T17:29:43.935Z,19.02
2022-08-30T17:32:48.646Z,18.84
2022-08-30T17:35:53.822Z,18.71
2022-08-30T17:38:56.343Z,18.57
2022-08-30T17:41:59.244Z,18.44
2022-08-30T17:45:06.881Z,18.31
2022-08-30T17:48:09.585Z,18.14
2022-08-30T17:51:12.639Z,17.98
2022-08-30T17:54:15.697Z,17.82
2022-08-30T17:57:18.421Z,17.68
2022-08-30T18:00:21.422Z,17.51
2022-08-30T18:03:24.238Z,17.33
2022-08-30T18:06:27.598Z,17.17
2022-08-30T18:09:33.827Z,17.01
2022-08-30T18:12:36.863Z,16.92
2022-08-30T18:15:39.567Z,16.83
2022-08-30T18:18:46.991Z,16.78
2022-08-30T18:21:50.569Z,16.77
2022-08-30T18:24:53.474Z,16.76
2022-08-30T18:27:58.399Z,16.75
2022-08-30T18:31:02.050Z,16.73
2022-08-30T18:34:06.422Z,16.70
2022-08-30T18:37:15.032Z,16.64
2022-08-30T18:40:19.798Z,16.53
2022-08-30T18:43:24.505Z,16.43
2022-08-30T18:46:32.975Z,16.28
2022-08-30T18:49:36.725Z,16.11
2022-08-30T18:52:39.432Z,15.93
2022-08-30T18:55:42.921Z,15.74
2022-08-30T18:58:46.988Z,15.59
2022-08-30T19:01:49.967Z,15.43
2022-08-30T19:04:52.654Z,15.28
2022-08-30T19:07:55.638Z,15.13
2022-08-30T19:11:04.672Z,15.00
2022-08-30T19:14:07.951Z,14.91
2022-08-30T19:17:10.719Z,14.84
2022-08-30T19:20:14.757Z,14.76
2022-08-30T19:23:17.499Z,14.71
2022-08-30T19:26:20.233Z,14.68
2022-08-30T19:29:22.935Z,14.62
2022-08-30T19:32:27.468Z,14.55
2022-08-30T19:35:30.445Z,14.48
2022-08-30T19:38:35.171Z,14.51
2022-08-30T19:41:37.738Z,14.58
2022-08-30T19:44:40.344Z,14.65
2022-08-30T19:47:43.060Z,14.72
2022-08-30T19:50:45.755Z,14.77
2022-08-30T19:53:50.428Z,14.79
2022-08-30T19:56:53.289Z,14.77
2022-08-30T19:59:57.197Z,14.73
2022-08-30T20:06:23.378Z,14.63
2022-08-30T20:09:26.032Z,14.60
2022-08-30T20:12:28.682Z,14.54
2022-08-30T20:15:31.341Z,14.49
2022-08-30T20:18:36.006Z,14.41
2022-08-30T20:21:39.143Z,14.38
2022-08-30T20:24:43.709Z,14.36
2022-08-30T20:27:46.974Z,14.34
2022-08-30T20:30:49.697Z,14.32
2022-08-30T20:33:52.535Z,14.30
2022-08-30T20:36:55.514Z,14.27
2022-08-30T20:39:58.881Z,14.23
2022-08-30T20:43:01.581Z,14.16
2022-08-30T20:46:07.347Z,14.11
2022-08-30T20:49:10.914Z,14.06
2022-08-30T20:52:13.947Z,14.03
2022-08-30T20:55:18.595Z,13.97
2022-08-30T20:58:21.314Z,13.93
2022-08-30T21:01:25.520Z,13.85
2022-08-30T21:04:28.604Z,13.79
2022-08-30T21:07:31.355Z,13.74
2022-08-30T21:10:34.342Z,13.67
2022-08-30T21:13:37.476Z,13.60
2022-08-30T21:16:41.542Z,13.52
2022-08-30T21:19:45.134Z,13.46
2022-08-30T21:22:48.939Z,13.43
2022-08-30T21:25:51.889Z,13.41
2022-08-30T21:28:57.127Z,13.38
2022-08-30T21:32:00.914Z,13.40
2022-08-30T21:35:15.549Z,13.41
2022-08-30T21:38:20.181Z,13.44
2022-08-30T21:41:24.771Z,13.45
2022-08-30T21:44:30.579Z,13.46
2022-08-30T21:47:35.142Z,13.44
2022-08-30T22:23:09.511Z,12.90
2022-08-30T22:26:14.833Z,12.82
2022-08-30T22:29:17.569Z,12.76
2022-08-30T22:32:20.665Z,12.71
2022-08-30T22:35:23.451Z,12.66
2022-08-30T22:38:26.102Z,12.63
2022-08-30T22:41:30.562Z,12.63
2022-08-30T22:44:34.218Z,12.62
2022-08-30T22:47:36.934Z,12.57
2022-08-30T22:50:40.078Z,12.54
2022-08-30T22:53:44.529Z,12.45
2022-08-30T22:56:47.250Z,12.46
2022-08-30T22:59:51.410Z,12.42
2022-08-30T23:02:54.371Z,12.36
2022-08-30T23:05:57.360Z,12.29
2022-08-30T23:09:00.021Z,12.27
2022-08-30T23:12:03.099Z,12.23
2022-08-30T23:15:07.586Z,12.16
2022-08-30T23:18:10.404Z,12.08
2022-08-30T23:21:14.793Z,12.04
2022-08-30T23:24:36.014Z,12.00
2022-08-30T23:27:58.072Z,11.95
2022-08-30T23:31:26.504Z,11.90
2022-08-30T23:34:47.777Z,11.85
2022-08-30T23:38:08.888Z,11.80
2022-08-30T23:41:33.847Z,11.73
2022-08-30T23:44:55.806Z,11.63
2022-08-30T23:48:16.688Z,11.58
2022-08-30T23:51:37.916Z,11.54
2022-08-30T23:54:58.959Z,11.51
2022-08-30T23:58:19.977Z,11.50
